Aroma Park, IL

4:24 PM CST on January 31, 2015 (GMT -0600)
Chicago Lansing | Change Station
CLOSE
Current Station
Airport
Location: Chicago Lansing,
Elevation: 617 ft
Nearby Weather Stations
Active Advisory: Winter Storm Warning

Elev 617 ft 41.54 °N, 87.53 °W | Updated 9 minutes ago

Overcast
Overcast
37 °F
Feels Like 29 °F
N
10
Wind Variable Wind from WSW

Today
High -- | Low -- °F
--% Chance of Precip.
Yesterday
High -- | Low -- °F
Precip. -- in
7:03 AM 5:06 PM
Waxing Gibbous, 92% visible
Pressure 30.18 in
Visibility 10.0 miles
Clouds Overcast 4200 ft
Windchill 29 °F
Dew Point 29 °F
Humidity 73%
Rainfall 0.00 in
Snow Depth Not available.
UV 0 out of 12
Pollen .10 out of 12
Air Quality Not available.
Flu Activity Not available.
METAR KIGQ 312215Z AUTO 24009KT 10SM OVC042 03/M02 A3018 RMK AO2 T00261018

More Conditions Fewer Conditions

Pressure 30.18 in
Visibility 10.0 miles
Clouds Overcast 4200 ft
Windchill 29 °F
Dew Point 29 °F
Humidity 73%
Rainfall 0.00 in
Snow Depth Not available.
UV 0 out of 12
Pollen .10 out of 12
Air Quality Not available.
Flu Activity Not available.
METAR KIGQ 312215Z AUTO 24009KT 10SM OVC042 03/M02 A3018 RMK AO2 T00261018

More Conditions Fewer Conditions

10-Day Weather Forecast

Almanac

Astronomy

Jan. 31, 2015 Rise Set
Actual Time
Civil Twilight
Nautical Twilight
Astronomical Twilight
Moon
Length of Visible Light
Length of Day
Tomorrow will be .
, % of the Moon is Illuminated

Today's Extremes

State Highs State Lows

Community

WunderPhotos

Upload Photos

1,792,225 photos uploaded!

WunderBlogs® & News

Nearby

Air Quality

  Air Quality AQ Index Pollutant
Not available.

Snow Depth

Station Depth Elevation

Earthquake Activity

City Distance Mag. Time & Date
Minimum magnitude displayed is 2.5.

Coastal Water Temperatures

Place Temperature

Nearby Weather Stations